<?xml version="1.0" encoding="UTF-8" standalone="no" ?>
<gpx xmlns="http://www.topografix.com/GPX/1/1" xmlns:xsi="http://www.w3.org/2001/XMLSchema-instance" xsi:schemaLocation="http://www.topografix.com/GPX/1/1 http://www.topografix.com/GPX/1/1/gpx.xsd" version="1.1" creator="VisuGPX - https://www.visugpx.com">
  <metadata>
    <name>spectacle la ciotat</name>
    <desc><![CDATA[La traversee a grand spectacle sur les cretes de La Ciotat]]></desc>
  </metadata>
  <trk>
    <name><![CDATA[spectacle la ciotat-16049368]]></name>
    <extensions>
      <line xmlns="http://www.topografix.com/GPX/gpx_style/0/2">
        <color>00FF00</color>
        <width>4</width>
      </line>
    </extensions>
    <trkseg>
      <trkpt lat="43.17136" lon="5.60566">
        <ele>9</ele>
        <time>2023-01-12T14:02:23Z</time>
      </trkpt>
      <trkpt lat="43.17149" lon="5.60547">
        <ele>9</ele>
        <time>2023-01-12T14:02:38Z</time>
      </trkpt>
      <trkpt lat="43.17143" lon="5.60538">
        <ele>9</ele>
        <time>2023-01-12T14:02:45Z</time>
      </trkpt>
      <trkpt lat="43.17124" lon="5.60565">
        <ele>10</ele>
        <time>2023-01-12T14:03:07Z</time>
      </trkpt>
      <trkpt lat="43.17115" lon="5.60582">
        <ele>11</ele>
        <time>2023-01-12T14:03:20Z</time>
      </trkpt>
      <trkpt lat="43.17105" lon="5.60583">
        <ele>11</ele>
        <time>2023-01-12T14:03:28Z</time>
      </trkpt>
      <trkpt lat="43.17098" lon="5.60582">
        <ele>12</ele>
        <time>2023-01-12T14:03:33Z</time>
      </trkpt>
      <trkpt lat="43.17084" lon="5.60574">
        <ele>13</ele>
        <time>2023-01-12T14:03:45Z</time>
      </trkpt>
      <trkpt lat="43.17084" lon="5.60568">
        <ele>13</ele>
        <time>2023-01-12T14:03:49Z</time>
      </trkpt>
      <trkpt lat="43.17074" lon="5.60537">
        <ele>13</ele>
        <time>2023-01-12T14:04:09Z</time>
      </trkpt>
      <trkpt lat="43.17068" lon="5.60521">
        <ele>14</ele>
        <time>2023-01-12T14:04:19Z</time>
      </trkpt>
      <trkpt lat="43.17041" lon="5.60535">
        <ele>13</ele>
        <time>2023-01-12T14:04:42Z</time>
      </trkpt>
      <trkpt lat="43.17034" lon="5.605">
        <ele>13</ele>
        <time>2023-01-12T14:05:03Z</time>
      </trkpt>
      <trkpt lat="43.17025" lon="5.60434">
        <ele>12</ele>
        <time>2023-01-12T14:05:43Z</time>
      </trkpt>
      <trkpt lat="43.17026" lon="5.60426">
        <ele>12</ele>
        <time>2023-01-12T14:05:47Z</time>
      </trkpt>
      <trkpt lat="43.17011" lon="5.60415">
        <ele>11</ele>
        <time>2023-01-12T14:06:01Z</time>
      </trkpt>
      <trkpt lat="43.16927" lon="5.60354">
        <ele>16</ele>
        <time>2023-01-12T14:07:17Z</time>
      </trkpt>
      <trkpt lat="43.16939" lon="5.60334">
        <ele>17</ele>
        <time>2023-01-12T14:07:32Z</time>
      </trkpt>
      <trkpt lat="43.16927" lon="5.60354">
        <ele>16</ele>
        <time>2023-01-12T14:07:47Z</time>
      </trkpt>
      <trkpt lat="43.1687" lon="5.60461">
        <ele>16</ele>
        <time>2023-01-12T14:09:05Z</time>
      </trkpt>
      <trkpt lat="43.16835" lon="5.60548">
        <ele>13</ele>
        <time>2023-01-12T14:10:03Z</time>
      </trkpt>
      <trkpt lat="43.16826" lon="5.60561">
        <ele>13</ele>
        <time>2023-01-12T14:10:13Z</time>
      </trkpt>
      <trkpt lat="43.16819" lon="5.60568">
        <ele>14</ele>
        <time>2023-01-12T14:10:20Z</time>
      </trkpt>
      <trkpt lat="43.16805" lon="5.60571">
        <ele>15</ele>
        <time>2023-01-12T14:10:31Z</time>
      </trkpt>
      <trkpt lat="43.16774" lon="5.60575">
        <ele>18</ele>
        <time>2023-01-12T14:10:56Z</time>
      </trkpt>
      <trkpt lat="43.16761" lon="5.60571">
        <ele>19</ele>
        <time>2023-01-12T14:11:07Z</time>
      </trkpt>
      <trkpt lat="43.16715" lon="5.6055">
        <ele>18</ele>
        <time>2023-01-12T14:11:46Z</time>
      </trkpt>
      <trkpt lat="43.16706" lon="5.60545">
        <ele>17</ele>
        <time>2023-01-12T14:11:54Z</time>
      </trkpt>
      <trkpt lat="43.16703" lon="5.6055">
        <ele>17</ele>
        <time>2023-01-12T14:11:57Z</time>
      </trkpt>
      <trkpt lat="43.16681" lon="5.60616">
        <ele>12</ele>
        <time>2023-01-12T14:12:40Z</time>
      </trkpt>
      <trkpt lat="43.16677" lon="5.6062">
        <ele>12</ele>
        <time>2023-01-12T14:12:44Z</time>
      </trkpt>
      <trkpt lat="43.16672" lon="5.60619">
        <ele>11</ele>
        <time>2023-01-12T14:12:48Z</time>
      </trkpt>
      <trkpt lat="43.16663" lon="5.60606">
        <ele>12</ele>
        <time>2023-01-12T14:12:58Z</time>
      </trkpt>
      <trkpt lat="43.16656" lon="5.60595">
        <ele>12</ele>
        <time>2023-01-12T14:13:07Z</time>
      </trkpt>
      <trkpt lat="43.16616" lon="5.6057">
        <ele>14</ele>
        <time>2023-01-12T14:13:42Z</time>
      </trkpt>
      <trkpt lat="43.16592" lon="5.60565">
        <ele>15</ele>
        <time>2023-01-12T14:14:01Z</time>
      </trkpt>
      <trkpt lat="43.16589" lon="5.60565">
        <ele>15</ele>
        <time>2023-01-12T14:14:04Z</time>
      </trkpt>
      <trkpt lat="43.16575" lon="5.60576">
        <ele>14</ele>
        <time>2023-01-12T14:14:17Z</time>
      </trkpt>
      <trkpt lat="43.1657" lon="5.60584">
        <ele>13</ele>
        <time>2023-01-12T14:14:23Z</time>
      </trkpt>
      <trkpt lat="43.16554" lon="5.60598">
        <ele>12</ele>
        <time>2023-01-12T14:14:38Z</time>
      </trkpt>
      <trkpt lat="43.16547" lon="5.60609">
        <ele>11</ele>
        <time>2023-01-12T14:14:47Z</time>
      </trkpt>
      <trkpt lat="43.16539" lon="5.60617">
        <ele>10</ele>
        <time>2023-01-12T14:14:55Z</time>
      </trkpt>
      <trkpt lat="43.16536" lon="5.60611">
        <ele>11</ele>
        <time>2023-01-12T14:14:59Z</time>
      </trkpt>
      <trkpt lat="43.1653" lon="5.60603">
        <ele>11</ele>
        <time>2023-01-12T14:15:06Z</time>
      </trkpt>
      <trkpt lat="43.16525" lon="5.60597">
        <ele>12</ele>
        <time>2023-01-12T14:15:11Z</time>
      </trkpt>
      <trkpt lat="43.16516" lon="5.60581">
        <ele>13</ele>
        <time>2023-01-12T14:15:23Z</time>
      </trkpt>
      <trkpt lat="43.1647" lon="5.60597">
        <ele>15</ele>
        <time>2023-01-12T14:16:01Z</time>
      </trkpt>
      <trkpt lat="43.16468" lon="5.60585">
        <ele>16</ele>
        <time>2023-01-12T14:16:08Z</time>
      </trkpt>
      <trkpt lat="43.16463" lon="5.60542">
        <ele>19</ele>
        <time>2023-01-12T14:16:33Z</time>
      </trkpt>
      <trkpt lat="43.16441" lon="5.60489">
        <ele>24</ele>
        <time>2023-01-12T14:17:09Z</time>
      </trkpt>
      <trkpt lat="43.16435" lon="5.60467">
        <ele>25</ele>
        <time>2023-01-12T14:17:23Z</time>
      </trkpt>
      <trkpt lat="43.16436" lon="5.60457">
        <ele>25</ele>
        <time>2023-01-12T14:17:29Z</time>
      </trkpt>
      <trkpt lat="43.16384" lon="5.60446">
        <ele>29</ele>
        <time>2023-01-12T14:18:11Z</time>
      </trkpt>
      <trkpt lat="43.16341" lon="5.60442">
        <ele>34</ele>
        <time>2023-01-12T14:18:45Z</time>
      </trkpt>
      <trkpt lat="43.16328" lon="5.60422">
        <ele>38</ele>
        <time>2023-01-12T14:19:01Z</time>
      </trkpt>
      <trkpt lat="43.16321" lon="5.60406">
        <ele>43</ele>
        <time>2023-01-12T14:19:12Z</time>
      </trkpt>
      <trkpt lat="43.16328" lon="5.60422">
        <ele>38</ele>
        <time>2023-01-12T14:19:23Z</time>
      </trkpt>
      <trkpt lat="43.16341" lon="5.60442">
        <ele>34</ele>
        <time>2023-01-12T14:19:38Z</time>
      </trkpt>
      <trkpt lat="43.16384" lon="5.60446">
        <ele>29</ele>
        <time>2023-01-12T14:20:13Z</time>
      </trkpt>
      <trkpt lat="43.16436" lon="5.60457">
        <ele>25</ele>
        <time>2023-01-12T14:20:55Z</time>
      </trkpt>
      <trkpt lat="43.16435" lon="5.60467">
        <ele>25</ele>
        <time>2023-01-12T14:21:01Z</time>
      </trkpt>
      <trkpt lat="43.16441" lon="5.60489">
        <ele>24</ele>
        <time>2023-01-12T14:21:14Z</time>
      </trkpt>
      <trkpt lat="43.16463" lon="5.60542">
        <ele>19</ele>
        <time>2023-01-12T14:21:50Z</time>
      </trkpt>
      <trkpt lat="43.16465" lon="5.60557">
        <ele>18</ele>
        <time>2023-01-12T14:21:59Z</time>
      </trkpt>
      <trkpt lat="43.16467" lon="5.60556">
        <ele>18</ele>
        <time>2023-01-12T14:22:01Z</time>
      </trkpt>
      <trkpt lat="43.16469" lon="5.60555">
        <ele>18</ele>
        <time>2023-01-12T14:22:02Z</time>
      </trkpt>
      <trkpt lat="43.16478" lon="5.60547">
        <ele>18</ele>
        <time>2023-01-12T14:22:11Z</time>
      </trkpt>
      <trkpt lat="43.16491" lon="5.60547">
        <ele>17</ele>
        <time>2023-01-12T14:22:21Z</time>
      </trkpt>
      <trkpt lat="43.16495" lon="5.60541">
        <ele>17</ele>
        <time>2023-01-12T14:22:26Z</time>
      </trkpt>
      <trkpt lat="43.16502" lon="5.60537">
        <ele>17</ele>
        <time>2023-01-12T14:22:32Z</time>
      </trkpt>
      <trkpt lat="43.16516" lon="5.60581">
        <ele>13</ele>
        <time>2023-01-12T14:23:00Z</time>
      </trkpt>
      <trkpt lat="43.16525" lon="5.60597">
        <ele>12</ele>
        <time>2023-01-12T14:23:12Z</time>
      </trkpt>
      <trkpt lat="43.1653" lon="5.60603">
        <ele>11</ele>
        <time>2023-01-12T14:23:17Z</time>
      </trkpt>
      <trkpt lat="43.16536" lon="5.60611">
        <ele>11</ele>
        <time>2023-01-12T14:23:24Z</time>
      </trkpt>
      <trkpt lat="43.16539" lon="5.60617">
        <ele>10</ele>
        <time>2023-01-12T14:23:28Z</time>
      </trkpt>
      <trkpt lat="43.16547" lon="5.60609">
        <ele>11</ele>
        <time>2023-01-12T14:23:36Z</time>
      </trkpt>
      <trkpt lat="43.16554" lon="5.60598">
        <ele>12</ele>
        <time>2023-01-12T14:23:45Z</time>
      </trkpt>
      <trkpt lat="43.1657" lon="5.60584">
        <ele>13</ele>
        <time>2023-01-12T14:24:00Z</time>
      </trkpt>
      <trkpt lat="43.16575" lon="5.60576">
        <ele>14</ele>
        <time>2023-01-12T14:24:06Z</time>
      </trkpt>
      <trkpt lat="43.16589" lon="5.60565">
        <ele>15</ele>
        <time>2023-01-12T14:24:19Z</time>
      </trkpt>
      <trkpt lat="43.16601" lon="5.60566">
        <ele>15</ele>
        <time>2023-01-12T14:24:29Z</time>
      </trkpt>
      <trkpt lat="43.16616" lon="5.6057">
        <ele>14</ele>
        <time>2023-01-12T14:24:41Z</time>
      </trkpt>
      <trkpt lat="43.16646" lon="5.60588">
        <ele>13</ele>
        <time>2023-01-12T14:25:07Z</time>
      </trkpt>
      <trkpt lat="43.16656" lon="5.60595">
        <ele>12</ele>
        <time>2023-01-12T14:25:16Z</time>
      </trkpt>
      <trkpt lat="43.16672" lon="5.60619">
        <ele>11</ele>
        <time>2023-01-12T14:25:35Z</time>
      </trkpt>
      <trkpt lat="43.16677" lon="5.6062">
        <ele>12</ele>
        <time>2023-01-12T14:25:39Z</time>
      </trkpt>
      <trkpt lat="43.16681" lon="5.60616">
        <ele>12</ele>
        <time>2023-01-12T14:25:43Z</time>
      </trkpt>
      <trkpt lat="43.16703" lon="5.6055">
        <ele>17</ele>
        <time>2023-01-12T14:26:26Z</time>
      </trkpt>
      <trkpt lat="43.16706" lon="5.60545">
        <ele>17</ele>
        <time>2023-01-12T14:26:29Z</time>
      </trkpt>
      <trkpt lat="43.16714" lon="5.60519">
        <ele>19</ele>
        <time>2023-01-12T14:26:46Z</time>
      </trkpt>
      <trkpt lat="43.16749" lon="5.60397">
        <ele>26</ele>
        <time>2023-01-12T14:28:02Z</time>
      </trkpt>
      <trkpt lat="43.16778" lon="5.60271">
        <ele>25</ele>
        <time>2023-01-12T14:29:19Z</time>
      </trkpt>
      <trkpt lat="43.16803" lon="5.60175">
        <ele>29</ele>
        <time>2023-01-12T14:30:19Z</time>
      </trkpt>
      <trkpt lat="43.16805" lon="5.60137">
        <ele>30</ele>
        <time>2023-01-12T14:30:41Z</time>
      </trkpt>
      <trkpt lat="43.16807" lon="5.60123">
        <ele>30</ele>
        <time>2023-01-12T14:30:50Z</time>
      </trkpt>
      <trkpt lat="43.16818" lon="5.60093">
        <ele>32</ele>
        <time>2023-01-12T14:31:09Z</time>
      </trkpt>
      <trkpt lat="43.1683" lon="5.6007">
        <ele>33</ele>
        <time>2023-01-12T14:31:26Z</time>
      </trkpt>
      <trkpt lat="43.16836" lon="5.60052">
        <ele>34</ele>
        <time>2023-01-12T14:31:37Z</time>
      </trkpt>
      <trkpt lat="43.16861" lon="5.59953">
        <ele>39</ele>
        <time>2023-01-12T14:32:38Z</time>
      </trkpt>
      <trkpt lat="43.16865" lon="5.59934">
        <ele>40</ele>
        <time>2023-01-12T14:32:50Z</time>
      </trkpt>
      <trkpt lat="43.16919" lon="5.59986">
        <ele>39</ele>
        <time>2023-01-12T14:33:43Z</time>
      </trkpt>
      <trkpt lat="43.16922" lon="5.59986">
        <ele>38</ele>
        <time>2023-01-12T14:33:45Z</time>
      </trkpt>
      <trkpt lat="43.16942" lon="5.60004">
        <ele>37</ele>
        <time>2023-01-12T14:34:04Z</time>
      </trkpt>
      <trkpt lat="43.16945" lon="5.60007">
        <ele>36</ele>
        <time>2023-01-12T14:34:07Z</time>
      </trkpt>
      <trkpt lat="43.16948" lon="5.60014">
        <ele>36</ele>
        <time>2023-01-12T14:34:12Z</time>
      </trkpt>
      <trkpt lat="43.16952" lon="5.60001">
        <ele>36</ele>
        <time>2023-01-12T14:34:20Z</time>
      </trkpt>
      <trkpt lat="43.16954" lon="5.59978">
        <ele>38</ele>
        <time>2023-01-12T14:34:34Z</time>
      </trkpt>
      <trkpt lat="43.16961" lon="5.59845">
        <ele>46</ele>
        <time>2023-01-12T14:35:52Z</time>
      </trkpt>
      <trkpt lat="43.16965" lon="5.59685">
        <ele>57</ele>
        <time>2023-01-12T14:37:25Z</time>
      </trkpt>
      <trkpt lat="43.16968" lon="5.59603">
        <ele>57</ele>
        <time>2023-01-12T14:38:13Z</time>
      </trkpt>
      <trkpt lat="43.1697" lon="5.5959">
        <ele>57</ele>
        <time>2023-01-12T14:38:21Z</time>
      </trkpt>
      <trkpt lat="43.16959" lon="5.59595">
        <ele>56</ele>
        <time>2023-01-12T14:38:30Z</time>
      </trkpt>
      <trkpt lat="43.1697" lon="5.5959">
        <ele>57</ele>
        <time>2023-01-12T14:38:39Z</time>
      </trkpt>
      <trkpt lat="43.1699" lon="5.59543">
        <ele>59</ele>
        <time>2023-01-12T14:39:11Z</time>
      </trkpt>
      <trkpt lat="43.16993" lon="5.5953">
        <ele>59</ele>
        <time>2023-01-12T14:39:19Z</time>
      </trkpt>
      <trkpt lat="43.16992" lon="5.59466">
        <ele>59</ele>
        <time>2023-01-12T14:39:57Z</time>
      </trkpt>
      <trkpt lat="43.17006" lon="5.59416">
        <ele>60</ele>
        <time>2023-01-12T14:40:28Z</time>
      </trkpt>
      <trkpt lat="43.16996" lon="5.59406">
        <ele>60</ele>
        <time>2023-01-12T14:40:38Z</time>
      </trkpt>
      <trkpt lat="43.16953" lon="5.59366">
        <ele>60</ele>
        <time>2023-01-12T14:41:19Z</time>
      </trkpt>
      <trkpt lat="43.16947" lon="5.59355">
        <ele>61</ele>
        <time>2023-01-12T14:41:27Z</time>
      </trkpt>
      <trkpt lat="43.16934" lon="5.59342">
        <ele>61</ele>
        <time>2023-01-12T14:41:40Z</time>
      </trkpt>
      <trkpt lat="43.16884" lon="5.59302">
        <ele>62</ele>
        <time>2023-01-12T14:42:27Z</time>
      </trkpt>
      <trkpt lat="43.1687" lon="5.593">
        <ele>61</ele>
        <time>2023-01-12T14:42:38Z</time>
      </trkpt>
      <trkpt lat="43.16852" lon="5.593">
        <ele>61</ele>
        <time>2023-01-12T14:42:52Z</time>
      </trkpt>
      <trkpt lat="43.16792" lon="5.59307">
        <ele>69</ele>
        <time>2023-01-12T14:43:41Z</time>
      </trkpt>
      <trkpt lat="43.16751" lon="5.59311">
        <ele>78</ele>
        <time>2023-01-12T14:44:13Z</time>
      </trkpt>
      <trkpt lat="43.16721" lon="5.59309">
        <ele>74</ele>
        <time>2023-01-12T14:44:38Z</time>
      </trkpt>
      <trkpt lat="43.1671" lon="5.59304">
        <ele>72</ele>
        <time>2023-01-12T14:44:47Z</time>
      </trkpt>
      <trkpt lat="43.16677" lon="5.59248">
        <ele>76</ele>
        <time>2023-01-12T14:45:29Z</time>
      </trkpt>
      <trkpt lat="43.1671" lon="5.59304">
        <ele>72</ele>
        <time>2023-01-12T14:46:11Z</time>
      </trkpt>
      <trkpt lat="43.16721" lon="5.59309">
        <ele>74</ele>
        <time>2023-01-12T14:46:20Z</time>
      </trkpt>
      <trkpt lat="43.16751" lon="5.59311">
        <ele>78</ele>
        <time>2023-01-12T14:46:44Z</time>
      </trkpt>
      <trkpt lat="43.16792" lon="5.59307">
        <ele>69</ele>
        <time>2023-01-12T14:47:17Z</time>
      </trkpt>
      <trkpt lat="43.16852" lon="5.593">
        <ele>61</ele>
        <time>2023-01-12T14:48:05Z</time>
      </trkpt>
      <trkpt lat="43.1687" lon="5.593">
        <ele>61</ele>
        <time>2023-01-12T14:48:20Z</time>
      </trkpt>
      <trkpt lat="43.16884" lon="5.59302">
        <ele>62</ele>
        <time>2023-01-12T14:48:31Z</time>
      </trkpt>
      <trkpt lat="43.16934" lon="5.59342">
        <ele>61</ele>
        <time>2023-01-12T14:49:17Z</time>
      </trkpt>
      <trkpt lat="43.16947" lon="5.59355">
        <ele>61</ele>
        <time>2023-01-12T14:49:30Z</time>
      </trkpt>
      <trkpt lat="43.16953" lon="5.59366">
        <ele>60</ele>
        <time>2023-01-12T14:49:38Z</time>
      </trkpt>
      <trkpt lat="43.17006" lon="5.59416">
        <ele>60</ele>
        <time>2023-01-12T14:50:30Z</time>
      </trkpt>
      <trkpt lat="43.17019" lon="5.59381">
        <ele>63</ele>
        <time>2023-01-12T14:50:53Z</time>
      </trkpt>
      <trkpt lat="43.17076" lon="5.59214">
        <ele>81</ele>
        <time>2023-01-12T14:52:40Z</time>
      </trkpt>
      <trkpt lat="43.17079" lon="5.59199">
        <ele>82</ele>
        <time>2023-01-12T14:52:49Z</time>
      </trkpt>
      <trkpt lat="43.17082" lon="5.59146">
        <ele>88</ele>
        <time>2023-01-12T14:53:21Z</time>
      </trkpt>
      <trkpt lat="43.1708" lon="5.59123">
        <ele>92</ele>
        <time>2023-01-12T14:53:34Z</time>
      </trkpt>
      <trkpt lat="43.17073" lon="5.59085">
        <ele>97</ele>
        <time>2023-01-12T14:53:57Z</time>
      </trkpt>
      <trkpt lat="43.17074" lon="5.59032">
        <ele>95</ele>
        <time>2023-01-12T14:54:28Z</time>
      </trkpt>
      <trkpt lat="43.17076" lon="5.5902">
        <ele>95</ele>
        <time>2023-01-12T14:54:35Z</time>
      </trkpt>
      <trkpt lat="43.17084" lon="5.58997">
        <ele>95</ele>
        <time>2023-01-12T14:54:50Z</time>
      </trkpt>
      <trkpt lat="43.17115" lon="5.58951">
        <ele>101</ele>
        <time>2023-01-12T14:55:27Z</time>
      </trkpt>
      <trkpt lat="43.17117" lon="5.58936">
        <ele>101</ele>
        <time>2023-01-12T14:55:35Z</time>
      </trkpt>
      <trkpt lat="43.17117" lon="5.58878">
        <ele>103</ele>
        <time>2023-01-12T14:56:09Z</time>
      </trkpt>
      <trkpt lat="43.17121" lon="5.58841">
        <ele>106</ele>
        <time>2023-01-12T14:56:31Z</time>
      </trkpt>
      <trkpt lat="43.17126" lon="5.58822">
        <ele>106</ele>
        <time>2023-01-12T14:56:43Z</time>
      </trkpt>
      <trkpt lat="43.17134" lon="5.58803">
        <ele>106</ele>
        <time>2023-01-12T14:56:56Z</time>
      </trkpt>
      <trkpt lat="43.1718" lon="5.58731">
        <ele>111</ele>
        <time>2023-01-12T14:57:52Z</time>
      </trkpt>
      <trkpt lat="43.1719" lon="5.58721">
        <ele>112</ele>
        <time>2023-01-12T14:58:02Z</time>
      </trkpt>
      <trkpt lat="43.17217" lon="5.58706">
        <ele>118</ele>
        <time>2023-01-12T14:58:25Z</time>
      </trkpt>
      <trkpt lat="43.17227" lon="5.58697">
        <ele>120</ele>
        <time>2023-01-12T14:58:34Z</time>
      </trkpt>
      <trkpt lat="43.17232" lon="5.58683">
        <ele>120</ele>
        <time>2023-01-12T14:58:44Z</time>
      </trkpt>
      <trkpt lat="43.17232" lon="5.58665">
        <ele>118</ele>
        <time>2023-01-12T14:58:54Z</time>
      </trkpt>
      <trkpt lat="43.17222" lon="5.58641">
        <ele>116</ele>
        <time>2023-01-12T14:59:10Z</time>
      </trkpt>
      <trkpt lat="43.17218" lon="5.58628">
        <ele>115</ele>
        <time>2023-01-12T14:59:18Z</time>
      </trkpt>
      <trkpt lat="43.17217" lon="5.58616">
        <ele>116</ele>
        <time>2023-01-12T14:59:26Z</time>
      </trkpt>
      <trkpt lat="43.17221" lon="5.58597">
        <ele>118</ele>
        <time>2023-01-12T14:59:37Z</time>
      </trkpt>
      <trkpt lat="43.17239" lon="5.58555">
        <ele>122</ele>
        <time>2023-01-12T15:00:06Z</time>
      </trkpt>
      <trkpt lat="43.17261" lon="5.58522">
        <ele>125</ele>
        <time>2023-01-12T15:00:32Z</time>
      </trkpt>
      <trkpt lat="43.17289" lon="5.58491">
        <ele>130</ele>
        <time>2023-01-12T15:01:00Z</time>
      </trkpt>
      <trkpt lat="43.17318" lon="5.58465">
        <ele>135</ele>
        <time>2023-01-12T15:01:28Z</time>
      </trkpt>
      <trkpt lat="43.17369" lon="5.58434">
        <ele>138.7</ele>
        <time>2023-01-12T15:02:13Z</time>
      </trkpt>
      <trkpt lat="43.17384" lon="5.58428">
        <ele>147</ele>
        <time>2023-01-12T15:02:26Z</time>
      </trkpt>
      <trkpt lat="43.17389" lon="5.5842">
        <ele>147</ele>
        <time>2023-01-12T15:02:32Z</time>
      </trkpt>
      <trkpt lat="43.17389" lon="5.58409">
        <ele>147</ele>
        <time>2023-01-12T15:02:38Z</time>
      </trkpt>
      <trkpt lat="43.17382" lon="5.58401">
        <ele>146</ele>
        <time>2023-01-12T15:02:45Z</time>
      </trkpt>
      <trkpt lat="43.17372" lon="5.58395">
        <ele>144</ele>
        <time>2023-01-12T15:02:54Z</time>
      </trkpt>
      <trkpt lat="43.17361" lon="5.5838">
        <ele>142</ele>
        <time>2023-01-12T15:03:07Z</time>
      </trkpt>
      <trkpt lat="43.1736" lon="5.58373">
        <ele>142</ele>
        <time>2023-01-12T15:03:11Z</time>
      </trkpt>
      <trkpt lat="43.17353" lon="5.58353">
        <ele>141</ele>
        <time>2023-01-12T15:03:24Z</time>
      </trkpt>
      <trkpt lat="43.17354" lon="5.58338">
        <ele>143</ele>
        <time>2023-01-12T15:03:33Z</time>
      </trkpt>
      <trkpt lat="43.17367" lon="5.58306">
        <ele>146</ele>
        <time>2023-01-12T15:03:54Z</time>
      </trkpt>
      <trkpt lat="43.17396" lon="5.58266">
        <ele>157</ele>
        <time>2023-01-12T15:04:27Z</time>
      </trkpt>
      <trkpt lat="43.17403" lon="5.58258">
        <ele>160</ele>
        <time>2023-01-12T15:04:34Z</time>
      </trkpt>
      <trkpt lat="43.17412" lon="5.58245">
        <ele>163</ele>
        <time>2023-01-12T15:04:45Z</time>
      </trkpt>
      <trkpt lat="43.17425" lon="5.58215">
        <ele>163</ele>
        <time>2023-01-12T15:05:05Z</time>
      </trkpt>
      <trkpt lat="43.17435" lon="5.58201">
        <ele>164</ele>
        <time>2023-01-12T15:05:16Z</time>
      </trkpt>
      <trkpt lat="43.17468" lon="5.58168">
        <ele>170</ele>
        <time>2023-01-12T15:05:49Z</time>
      </trkpt>
      <trkpt lat="43.1751" lon="5.58142">
        <ele>180</ele>
        <time>2023-01-12T15:06:26Z</time>
      </trkpt>
      <trkpt lat="43.17517" lon="5.58131">
        <ele>181</ele>
        <time>2023-01-12T15:06:35Z</time>
      </trkpt>
      <trkpt lat="43.17522" lon="5.58119">
        <ele>180</ele>
        <time>2023-01-12T15:06:43Z</time>
      </trkpt>
      <trkpt lat="43.17533" lon="5.58099">
        <ele>180</ele>
        <time>2023-01-12T15:06:57Z</time>
      </trkpt>
      <trkpt lat="43.17542" lon="5.58089">
        <ele>182</ele>
        <time>2023-01-12T15:07:07Z</time>
      </trkpt>
      <trkpt lat="43.17563" lon="5.58081">
        <ele>188</ele>
        <time>2023-01-12T15:07:24Z</time>
      </trkpt>
      <trkpt lat="43.17567" lon="5.58074">
        <ele>190</ele>
        <time>2023-01-12T15:07:29Z</time>
      </trkpt>
      <trkpt lat="43.17567" lon="5.58068">
        <ele>191</ele>
        <time>2023-01-12T15:07:33Z</time>
      </trkpt>
      <trkpt lat="43.17567" lon="5.58062">
        <ele>191</ele>
        <time>2023-01-12T15:07:36Z</time>
      </trkpt>
      <trkpt lat="43.17563" lon="5.58055">
        <ele>191</ele>
        <time>2023-01-12T15:07:41Z</time>
      </trkpt>
      <trkpt lat="43.17542" lon="5.58033">
        <ele>187</ele>
        <time>2023-01-12T15:08:03Z</time>
      </trkpt>
      <trkpt lat="43.17521" lon="5.58">
        <ele>185</ele>
        <time>2023-01-12T15:08:28Z</time>
      </trkpt>
      <trkpt lat="43.17517" lon="5.57983">
        <ele>185</ele>
        <time>2023-01-12T15:08:39Z</time>
      </trkpt>
      <trkpt lat="43.17518" lon="5.57951">
        <ele>187</ele>
        <time>2023-01-12T15:08:57Z</time>
      </trkpt>
      <trkpt lat="43.17525" lon="5.57908">
        <ele>193</ele>
        <time>2023-01-12T15:09:23Z</time>
      </trkpt>
      <trkpt lat="43.17533" lon="5.57895">
        <ele>197</ele>
        <time>2023-01-12T15:09:33Z</time>
      </trkpt>
      <trkpt lat="43.17553" lon="5.57874">
        <ele>206</ele>
        <time>2023-01-12T15:09:53Z</time>
      </trkpt>
      <trkpt lat="43.17564" lon="5.57854">
        <ele>210</ele>
        <time>2023-01-12T15:10:08Z</time>
      </trkpt>
      <trkpt lat="43.1759" lon="5.57829">
        <ele>219</ele>
        <time>2023-01-12T15:10:33Z</time>
      </trkpt>
      <trkpt lat="43.17593" lon="5.57819">
        <ele>219</ele>
        <time>2023-01-12T15:10:39Z</time>
      </trkpt>
      <trkpt lat="43.17592" lon="5.57806">
        <ele>217</ele>
        <time>2023-01-12T15:10:47Z</time>
      </trkpt>
      <trkpt lat="43.17593" lon="5.57798">
        <ele>217</ele>
        <time>2023-01-12T15:10:52Z</time>
      </trkpt>
      <trkpt lat="43.17602" lon="5.57789">
        <ele>219</ele>
        <time>2023-01-12T15:11:01Z</time>
      </trkpt>
      <trkpt lat="43.17618" lon="5.57762">
        <ele>220</ele>
        <time>2023-01-12T15:11:21Z</time>
      </trkpt>
      <trkpt lat="43.1763" lon="5.57753">
        <ele>223</ele>
        <time>2023-01-12T15:11:32Z</time>
      </trkpt>
      <trkpt lat="43.17643" lon="5.57748">
        <ele>226</ele>
        <time>2023-01-12T15:11:43Z</time>
      </trkpt>
      <trkpt lat="43.17666" lon="5.57727">
        <ele>233</ele>
        <time>2023-01-12T15:12:05Z</time>
      </trkpt>
      <trkpt lat="43.17687" lon="5.57699">
        <ele>239</ele>
        <time>2023-01-12T15:12:28Z</time>
      </trkpt>
      <trkpt lat="43.17697" lon="5.57692">
        <ele>241</ele>
        <time>2023-01-12T15:12:37Z</time>
      </trkpt>
      <trkpt lat="43.17704" lon="5.57682">
        <ele>243</ele>
        <time>2023-01-12T15:12:45Z</time>
      </trkpt>
      <trkpt lat="43.17708" lon="5.57659">
        <ele>244</ele>
        <time>2023-01-12T15:12:59Z</time>
      </trkpt>
      <trkpt lat="43.17718" lon="5.57639">
        <ele>249</ele>
        <time>2023-01-12T15:13:13Z</time>
      </trkpt>
      <trkpt lat="43.17733" lon="5.57621">
        <ele>253</ele>
        <time>2023-01-12T15:13:29Z</time>
      </trkpt>
      <trkpt lat="43.17736" lon="5.57619">
        <ele>254</ele>
        <time>2023-01-12T15:13:32Z</time>
      </trkpt>
      <trkpt lat="43.17743" lon="5.57599">
        <ele>256</ele>
        <time>2023-01-12T15:13:45Z</time>
      </trkpt>
      <trkpt lat="43.17753" lon="5.5759">
        <ele>259</ele>
        <time>2023-01-12T15:13:55Z</time>
      </trkpt>
      <trkpt lat="43.17754" lon="5.57583">
        <ele>259</ele>
        <time>2023-01-12T15:13:59Z</time>
      </trkpt>
      <trkpt lat="43.17731" lon="5.57568">
        <ele>255.1</ele>
      </trkpt>
      <trkpt lat="43.17694" lon="5.57572">
        <ele>257.9</ele>
        <time>2023-01-12T15:14:30Z</time>
      </trkpt>
      <trkpt lat="43.1766" lon="5.57579">
        <ele>259.8</ele>
        <time>2023-01-12T15:14:53Z</time>
      </trkpt>
      <trkpt lat="43.17627" lon="5.57577">
        <ele>261.7</ele>
        <time>2023-01-12T15:15:31Z</time>
      </trkpt>
      <trkpt lat="43.17593" lon="5.57562">
        <ele>265.4</ele>
        <time>2023-01-12T15:15:58Z</time>
      </trkpt>
      <trkpt lat="43.1756" lon="5.57549">
        <ele>272</ele>
        <time>2023-01-12T15:17:04Z</time>
      </trkpt>
      <trkpt lat="43.17527" lon="5.57552">
        <ele>276.6</ele>
        <time>2023-01-12T15:17:36Z</time>
      </trkpt>
      <trkpt lat="43.17494" lon="5.57553">
        <ele>281.2</ele>
        <time>2023-01-12T15:17:52Z</time>
      </trkpt>
      <trkpt lat="43.17458" lon="5.57565">
        <ele>284</ele>
        <time>2023-01-12T15:18:11Z</time>
      </trkpt>
      <trkpt lat="43.17429" lon="5.57547">
        <ele>291</ele>
      </trkpt>
      <trkpt lat="43.17428" lon="5.57513">
        <ele>294.9</ele>
      </trkpt>
      <trkpt lat="43.17448" lon="5.57474">
        <ele>305</ele>
      </trkpt>
      <trkpt lat="43.17479" lon="5.57461">
        <ele>307.7</ele>
      </trkpt>
      <trkpt lat="43.17515" lon="5.57468">
        <ele>302.8</ele>
        <time>2023-01-12T15:18:53Z</time>
      </trkpt>
      <trkpt lat="43.17544" lon="5.57432">
        <ele>308.4</ele>
        <time>2023-01-12T15:19:10Z</time>
      </trkpt>
      <trkpt lat="43.17567" lon="5.57406">
        <ele>313.3</ele>
        <time>2023-01-12T15:19:15Z</time>
      </trkpt>
      <trkpt lat="43.17564" lon="5.57391">
        <ele>299</ele>
        <time>2023-01-12T15:19:39Z</time>
      </trkpt>
      <trkpt lat="43.17573" lon="5.57368">
        <ele>319</ele>
      </trkpt>
      <trkpt lat="43.17674" lon="5.57329">
        <ele>318.1</ele>
        <time>2023-01-12T15:21:27Z</time>
      </trkpt>
      <trkpt lat="43.17701" lon="5.57317">
        <ele>314</ele>
        <time>2023-01-12T15:21:37Z</time>
      </trkpt>
      <trkpt lat="43.17721" lon="5.57303">
        <ele>315</ele>
        <time>2023-01-12T15:21:55Z</time>
      </trkpt>
      <trkpt lat="43.17736" lon="5.57284">
        <ele>316</ele>
        <time>2023-01-12T15:22:11Z</time>
      </trkpt>
      <trkpt lat="43.17739" lon="5.57281">
        <ele>317</ele>
        <time>2023-01-12T15:22:14Z</time>
      </trkpt>
      <trkpt lat="43.17755" lon="5.5727">
        <ele>319</ele>
        <time>2023-01-12T15:22:28Z</time>
      </trkpt>
      <trkpt lat="43.17771" lon="5.57268">
        <ele>319</ele>
        <time>2023-01-12T15:22:41Z</time>
      </trkpt>
      <trkpt lat="43.17786" lon="5.5727">
        <ele>319</ele>
        <time>2023-01-12T15:22:53Z</time>
      </trkpt>
      <trkpt lat="43.17803" lon="5.57282">
        <ele>321</ele>
        <time>2023-01-12T15:23:09Z</time>
      </trkpt>
      <trkpt lat="43.17818" lon="5.57308">
        <ele>323</ele>
        <time>2023-01-12T15:23:28Z</time>
      </trkpt>
      <trkpt lat="43.17844" lon="5.57337">
        <ele>326</ele>
        <time>2023-01-12T15:23:55Z</time>
      </trkpt>
      <trkpt lat="43.17858" lon="5.57359">
        <ele>325</ele>
        <time>2023-01-12T15:24:12Z</time>
      </trkpt>
      <trkpt lat="43.17886" lon="5.57391">
        <ele>325</ele>
        <time>2023-01-12T15:24:41Z</time>
      </trkpt>
      <trkpt lat="43.17891" lon="5.57403">
        <ele>325</ele>
        <time>2023-01-12T15:24:49Z</time>
      </trkpt>
      <trkpt lat="43.17903" lon="5.57465">
        <ele>319</ele>
        <time>2023-01-12T15:25:26Z</time>
      </trkpt>
      <trkpt lat="43.1791" lon="5.57518">
        <ele>315</ele>
        <time>2023-01-12T15:25:58Z</time>
      </trkpt>
      <trkpt lat="43.17915" lon="5.57533">
        <ele>315</ele>
        <time>2023-01-12T15:26:08Z</time>
      </trkpt>
      <trkpt lat="43.17925" lon="5.57597">
        <ele>311</ele>
        <time>2023-01-12T15:26:46Z</time>
      </trkpt>
      <trkpt lat="43.17937" lon="5.5762">
        <ele>310</ele>
        <time>2023-01-12T15:27:02Z</time>
      </trkpt>
      <trkpt lat="43.17938" lon="5.57632">
        <ele>311</ele>
        <time>2023-01-12T15:27:09Z</time>
      </trkpt>
      <trkpt lat="43.17939" lon="5.5764">
        <ele>311</ele>
        <time>2023-01-12T15:27:14Z</time>
      </trkpt>
      <trkpt lat="43.17932" lon="5.57657">
        <ele>313</ele>
        <time>2023-01-12T15:27:25Z</time>
      </trkpt>
      <trkpt lat="43.17924" lon="5.57668">
        <ele>314</ele>
        <time>2023-01-12T15:27:35Z</time>
      </trkpt>
      <trkpt lat="43.17912" lon="5.5771">
        <ele>313</ele>
        <time>2023-01-12T15:28:01Z</time>
      </trkpt>
      <trkpt lat="43.17898" lon="5.57728">
        <ele>309</ele>
        <time>2023-01-12T15:28:16Z</time>
      </trkpt>
      <trkpt lat="43.17863" lon="5.578">
        <ele>299</ele>
        <time>2023-01-12T15:29:07Z</time>
      </trkpt>
      <trkpt lat="43.17843" lon="5.57813">
        <ele>296</ele>
        <time>2023-01-12T15:29:25Z</time>
      </trkpt>
      <trkpt lat="43.17836" lon="5.57831">
        <ele>295</ele>
        <time>2023-01-12T15:29:36Z</time>
      </trkpt>
      <trkpt lat="43.17833" lon="5.57861">
        <ele>292</ele>
        <time>2023-01-12T15:29:54Z</time>
      </trkpt>
      <trkpt lat="43.17834" lon="5.57908">
        <ele>286</ele>
        <time>2023-01-12T15:30:22Z</time>
      </trkpt>
      <trkpt lat="43.17829" lon="5.57951">
        <ele>280</ele>
        <time>2023-01-12T15:30:47Z</time>
      </trkpt>
      <trkpt lat="43.17787" lon="5.58053">
        <ele>260</ele>
        <time>2023-01-12T15:31:55Z</time>
      </trkpt>
      <trkpt lat="43.17772" lon="5.58088">
        <ele>258</ele>
        <time>2023-01-12T15:32:19Z</time>
      </trkpt>
      <trkpt lat="43.17745" lon="5.58162">
        <ele>257</ele>
        <time>2023-01-12T15:33:07Z</time>
      </trkpt>
      <trkpt lat="43.17708" lon="5.58233">
        <ele>248</ele>
        <time>2023-01-12T15:33:58Z</time>
      </trkpt>
      <trkpt lat="43.17693" lon="5.58269">
        <ele>246</ele>
        <time>2023-01-12T15:34:23Z</time>
      </trkpt>
      <trkpt lat="43.17681" lon="5.58319">
        <ele>241</ele>
        <time>2023-01-12T15:34:53Z</time>
      </trkpt>
      <trkpt lat="43.17663" lon="5.58415">
        <ele>234</ele>
        <time>2023-01-12T15:35:51Z</time>
      </trkpt>
      <trkpt lat="43.17652" lon="5.58435">
        <ele>229</ele>
        <time>2023-01-12T15:36:06Z</time>
      </trkpt>
      <trkpt lat="43.17615" lon="5.58522">
        <ele>220</ele>
        <time>2023-01-12T15:37:05Z</time>
      </trkpt>
      <trkpt lat="43.176" lon="5.58543">
        <ele>219</ele>
        <time>2023-01-12T15:37:22Z</time>
      </trkpt>
      <trkpt lat="43.17581" lon="5.58575">
        <ele>219</ele>
        <time>2023-01-12T15:37:46Z</time>
      </trkpt>
      <trkpt lat="43.17563" lon="5.58613">
        <ele>214</ele>
        <time>2023-01-12T15:38:12Z</time>
      </trkpt>
      <trkpt lat="43.17546" lon="5.58655">
        <ele>211</ele>
        <time>2023-01-12T15:38:40Z</time>
      </trkpt>
      <trkpt lat="43.17495" lon="5.5874">
        <ele>202</ele>
        <time>2023-01-12T15:39:45Z</time>
      </trkpt>
      <trkpt lat="43.17489" lon="5.58785">
        <ele>196</ele>
        <time>2023-01-12T15:40:11Z</time>
      </trkpt>
      <trkpt lat="43.17468" lon="5.58836">
        <ele>188</ele>
        <time>2023-01-12T15:40:46Z</time>
      </trkpt>
      <trkpt lat="43.17457" lon="5.58873">
        <ele>182</ele>
        <time>2023-01-12T15:41:09Z</time>
      </trkpt>
      <trkpt lat="43.17452" lon="5.58908">
        <ele>177</ele>
        <time>2023-01-12T15:41:30Z</time>
      </trkpt>
      <trkpt lat="43.17454" lon="5.58927">
        <ele>175</ele>
        <time>2023-01-12T15:41:41Z</time>
      </trkpt>
      <trkpt lat="43.17451" lon="5.58975">
        <ele>169</ele>
        <time>2023-01-12T15:42:09Z</time>
      </trkpt>
      <trkpt lat="43.17445" lon="5.59019">
        <ele>164</ele>
        <time>2023-01-12T15:42:35Z</time>
      </trkpt>
      <trkpt lat="43.17437" lon="5.59054">
        <ele>159</ele>
        <time>2023-01-12T15:42:57Z</time>
      </trkpt>
      <trkpt lat="43.17435" lon="5.5908">
        <ele>156</ele>
        <time>2023-01-12T15:43:12Z</time>
      </trkpt>
      <trkpt lat="43.17436" lon="5.59104">
        <ele>153</ele>
        <time>2023-01-12T15:43:26Z</time>
      </trkpt>
      <trkpt lat="43.17416" lon="5.59108">
        <ele>152</ele>
        <time>2023-01-12T15:43:42Z</time>
      </trkpt>
      <trkpt lat="43.1741" lon="5.59111">
        <ele>150</ele>
        <time>2023-01-12T15:43:47Z</time>
      </trkpt>
      <trkpt lat="43.17379" lon="5.59175">
        <ele>141.6</ele>
      </trkpt>
      <trkpt lat="43.17396" lon="5.59234">
        <ele>134</ele>
        <time>2023-01-12T15:45:00Z</time>
      </trkpt>
      <trkpt lat="43.17393" lon="5.59294">
        <ele>127</ele>
        <time>2023-01-12T15:45:35Z</time>
      </trkpt>
      <trkpt lat="43.17413" lon="5.59496">
        <ele>100</ele>
        <time>2023-01-12T15:47:34Z</time>
      </trkpt>
      <trkpt lat="43.17419" lon="5.59526">
        <ele>96</ele>
        <time>2023-01-12T15:47:52Z</time>
      </trkpt>
      <trkpt lat="43.17438" lon="5.5966">
        <ele>74</ele>
        <time>2023-01-12T15:49:12Z</time>
      </trkpt>
      <trkpt lat="43.17456" lon="5.59728">
        <ele>64</ele>
        <time>2023-01-12T15:49:54Z</time>
      </trkpt>
      <trkpt lat="43.17477" lon="5.59794">
        <ele>55</ele>
        <time>2023-01-12T15:50:36Z</time>
      </trkpt>
      <trkpt lat="43.17478" lon="5.598">
        <ele>54</ele>
        <time>2023-01-12T15:50:40Z</time>
      </trkpt>
      <trkpt lat="43.17479" lon="5.59804">
        <ele>54</ele>
        <time>2023-01-12T15:50:42Z</time>
      </trkpt>
      <trkpt lat="43.17481" lon="5.59804">
        <ele>54</ele>
        <time>2023-01-12T15:50:44Z</time>
      </trkpt>
      <trkpt lat="43.1751" lon="5.59906">
        <ele>39</ele>
        <time>2023-01-12T15:51:48Z</time>
      </trkpt>
      <trkpt lat="43.17523" lon="5.59908">
        <ele>38</ele>
        <time>2023-01-12T15:51:58Z</time>
      </trkpt>
      <trkpt lat="43.17527" lon="5.59913">
        <ele>37</ele>
        <time>2023-01-12T15:52:03Z</time>
      </trkpt>
      <trkpt lat="43.17542" lon="5.59965">
        <ele>30</ele>
        <time>2023-01-12T15:52:35Z</time>
      </trkpt>
      <trkpt lat="43.17541" lon="5.59973">
        <ele>29</ele>
        <time>2023-01-12T15:52:40Z</time>
      </trkpt>
      <trkpt lat="43.17552" lon="5.59982">
        <ele>28</ele>
        <time>2023-01-12T15:52:50Z</time>
      </trkpt>
      <trkpt lat="43.17561" lon="5.59993">
        <ele>26</ele>
        <time>2023-01-12T15:53:00Z</time>
      </trkpt>
      <trkpt lat="43.1757" lon="5.60006">
        <ele>24</ele>
        <time>2023-01-12T15:53:10Z</time>
      </trkpt>
      <trkpt lat="43.17572" lon="5.6001">
        <ele>24</ele>
        <time>2023-01-12T15:53:13Z</time>
      </trkpt>
      <trkpt lat="43.17581" lon="5.6004">
        <ele>22</ele>
        <time>2023-01-12T15:53:32Z</time>
      </trkpt>
      <trkpt lat="43.17585" lon="5.60063">
        <ele>21</ele>
        <time>2023-01-12T15:53:46Z</time>
      </trkpt>
      <trkpt lat="43.17594" lon="5.60148">
        <ele>17</ele>
        <time>2023-01-12T15:54:36Z</time>
      </trkpt>
      <trkpt lat="43.17594" lon="5.60181">
        <ele>16</ele>
        <time>2023-01-12T15:54:55Z</time>
      </trkpt>
      <trkpt lat="43.17586" lon="5.60204">
        <ele>15</ele>
        <time>2023-01-12T15:55:10Z</time>
      </trkpt>
      <trkpt lat="43.17585" lon="5.60252">
        <ele>14</ele>
        <time>2023-01-12T15:55:38Z</time>
      </trkpt>
      <trkpt lat="43.17591" lon="5.60383">
        <ele>13</ele>
        <time>2023-01-12T15:56:55Z</time>
      </trkpt>
      <trkpt lat="43.17582" lon="5.60481">
        <ele>11</ele>
        <time>2023-01-12T15:57:53Z</time>
      </trkpt>
      <trkpt lat="43.17576" lon="5.60519">
        <ele>11</ele>
        <time>2023-01-12T15:58:15Z</time>
      </trkpt>
      <trkpt lat="43.17532" lon="5.60485">
        <ele>12</ele>
        <time>2023-01-12T15:58:56Z</time>
      </trkpt>
      <trkpt lat="43.17516" lon="5.60523">
        <ele>12</ele>
        <time>2023-01-12T15:59:21Z</time>
      </trkpt>
      <trkpt lat="43.17519" lon="5.60528">
        <ele>12</ele>
        <time>2023-01-12T15:59:25Z</time>
      </trkpt>
      <trkpt lat="43.17469" lon="5.60538">
        <ele>11</ele>
        <time>2023-01-12T16:00:06Z</time>
      </trkpt>
      <trkpt lat="43.17469" lon="5.60545">
        <ele>11</ele>
        <time>2023-01-12T16:00:10Z</time>
      </trkpt>
      <trkpt lat="43.17411" lon="5.60632">
        <ele>5</ele>
        <time>2023-01-12T16:01:19Z</time>
      </trkpt>
      <trkpt lat="43.1739" lon="5.60608">
        <ele>6</ele>
        <time>2023-01-12T16:01:40Z</time>
      </trkpt>
      <trkpt lat="43.17375" lon="5.606">
        <ele>6</ele>
        <time>2023-01-12T16:01:53Z</time>
      </trkpt>
      <trkpt lat="43.17371" lon="5.60597">
        <ele>6</ele>
        <time>2023-01-12T16:01:57Z</time>
      </trkpt>
      <trkpt lat="43.17368" lon="5.60588">
        <ele>6</ele>
        <time>2023-01-12T16:02:03Z</time>
      </trkpt>
      <trkpt lat="43.17353" lon="5.60591">
        <ele>5</ele>
        <time>2023-01-12T16:02:15Z</time>
      </trkpt>
      <trkpt lat="43.17315" lon="5.6058">
        <ele>4</ele>
        <time>2023-01-12T16:02:46Z</time>
      </trkpt>
      <trkpt lat="43.17263" lon="5.60576">
        <ele>3</ele>
        <time>2023-01-12T16:03:28Z</time>
      </trkpt>
      <trkpt lat="43.17251" lon="5.60576">
        <ele>2</ele>
        <time>2023-01-12T16:03:37Z</time>
      </trkpt>
      <trkpt lat="43.17212" lon="5.6059">
        <ele>4</ele>
        <time>2023-01-12T16:04:10Z</time>
      </trkpt>
      <trkpt lat="43.17196" lon="5.60588">
        <ele>5</ele>
        <time>2023-01-12T16:04:22Z</time>
      </trkpt>
      <trkpt lat="43.17187" lon="5.60583">
        <ele>6</ele>
        <time>2023-01-12T16:04:30Z</time>
      </trkpt>
      <trkpt lat="43.17183" lon="5.60534">
        <ele>7</ele>
        <time>2023-01-12T16:04:59Z</time>
      </trkpt>
      <trkpt lat="43.17184" lon="5.60527">
        <ele>7</ele>
        <time>2023-01-12T16:05:03Z</time>
      </trkpt>
      <trkpt lat="43.17172" lon="5.6052">
        <ele>7</ele>
        <time>2023-01-12T16:05:14Z</time>
      </trkpt>
      <trkpt lat="43.17165" lon="5.60509">
        <ele>8</ele>
        <time>2023-01-12T16:05:22Z</time>
      </trkpt>
      <trkpt lat="43.17158" lon="5.60518">
        <ele>8</ele>
        <time>2023-01-12T16:05:30Z</time>
      </trkpt>
      <trkpt lat="43.17147" lon="5.60508">
        <ele>9</ele>
        <time>2023-01-12T16:05:40Z</time>
      </trkpt>
      <trkpt lat="43.17135" lon="5.60494">
        <ele>10</ele>
        <time>2023-01-12T16:05:53Z</time>
      </trkpt>
      <trkpt lat="43.17131" lon="5.60482">
        <ele>10</ele>
        <time>2023-01-12T16:06:01Z</time>
      </trkpt>
      <trkpt lat="43.17127" lon="5.60448">
        <ele>10</ele>
        <time>2023-01-12T16:06:21Z</time>
      </trkpt>
      <trkpt lat="43.17122" lon="5.60365">
        <ele>13</ele>
        <time>2023-01-12T16:07:09Z</time>
      </trkpt>
      <trkpt lat="43.17122" lon="5.60285">
        <ele>19</ele>
        <time>2023-01-12T16:07:56Z</time>
      </trkpt>
      <trkpt lat="43.1713" lon="5.60281">
        <ele>19</ele>
        <time>2023-01-12T16:08:03Z</time>
      </trkpt>
      <trkpt lat="43.17129" lon="5.6026">
        <ele>21</ele>
        <time>2023-01-12T16:08:15Z</time>
      </trkpt>
      <trkpt lat="43.17123" lon="5.60261">
        <ele>21</ele>
        <time>2023-01-12T16:08:20Z</time>
      </trkpt>
      <trkpt lat="43.17121" lon="5.60235">
        <ele>23</ele>
        <time>2023-01-12T16:08:35Z</time>
      </trkpt>
      <trkpt lat="43.17117" lon="5.60213">
        <ele>25</ele>
        <time>2023-01-12T16:08:49Z</time>
      </trkpt>
      <trkpt lat="43.17109" lon="5.60201">
        <ele>25</ele>
        <time>2023-01-12T16:08:58Z</time>
      </trkpt>
      <trkpt lat="43.1708" lon="5.6017">
        <ele>28</ele>
        <time>2023-01-12T16:09:28Z</time>
      </trkpt>
      <trkpt lat="43.17076" lon="5.60168">
        <ele>28</ele>
        <time>2023-01-12T16:09:31Z</time>
      </trkpt>
      <trkpt lat="43.17072" lon="5.60165">
        <ele>28</ele>
        <time>2023-01-12T16:09:35Z</time>
      </trkpt>
      <trkpt lat="43.17076" lon="5.60158">
        <ele>29</ele>
        <time>2023-01-12T16:09:40Z</time>
      </trkpt>
      <trkpt lat="43.17062" lon="5.60142">
        <ele>30</ele>
        <time>2023-01-12T16:09:54Z</time>
      </trkpt>
      <trkpt lat="43.16973" lon="5.60046">
        <ele>34</ele>
        <time>2023-01-12T16:11:25Z</time>
      </trkpt>
      <trkpt lat="43.16948" lon="5.60014">
        <ele>36</ele>
        <time>2023-01-12T16:11:52Z</time>
      </trkpt>
      <trkpt lat="43.16952" lon="5.60001">
        <ele>36</ele>
        <time>2023-01-12T16:12:01Z</time>
      </trkpt>
      <trkpt lat="43.16954" lon="5.59978">
        <ele>38</ele>
        <time>2023-01-12T16:12:14Z</time>
      </trkpt>
      <trkpt lat="43.16961" lon="5.59845">
        <ele>46</ele>
        <time>2023-01-12T16:13:32Z</time>
      </trkpt>
      <trkpt lat="43.16965" lon="5.59685">
        <ele>57</ele>
        <time>2023-01-12T16:15:06Z</time>
      </trkpt>
      <trkpt lat="43.16968" lon="5.59603">
        <ele>57</ele>
        <time>2023-01-12T16:15:53Z</time>
      </trkpt>
      <trkpt lat="43.1697" lon="5.5959">
        <ele>57</ele>
        <time>2023-01-12T16:16:01Z</time>
      </trkpt>
      <trkpt lat="43.1699" lon="5.59543">
        <ele>59</ele>
        <time>2023-01-12T16:16:33Z</time>
      </trkpt>
      <trkpt lat="43.16993" lon="5.5953">
        <ele>59</ele>
        <time>2023-01-12T16:16:41Z</time>
      </trkpt>
      <trkpt lat="43.16992" lon="5.59466">
        <ele>59</ele>
        <time>2023-01-12T16:17:18Z</time>
      </trkpt>
      <trkpt lat="43.17006" lon="5.59416">
        <ele>60</ele>
        <time>2023-01-12T16:17:50Z</time>
      </trkpt>
      <trkpt lat="43.17027" lon="5.59359">
        <ele>65</ele>
        <time>2023-01-12T16:18:27Z</time>
      </trkpt>
      <trkpt lat="43.17076" lon="5.59214">
        <ele>81</ele>
        <time>2023-01-12T16:20:00Z</time>
      </trkpt>
      <trkpt lat="43.17079" lon="5.59199">
        <ele>82</ele>
        <time>2023-01-12T16:20:09Z</time>
      </trkpt>
      <trkpt lat="43.17082" lon="5.59146">
        <ele>88</ele>
        <time>2023-01-12T16:20:40Z</time>
      </trkpt>
      <trkpt lat="43.1708" lon="5.59123">
        <ele>92</ele>
        <time>2023-01-12T16:20:54Z</time>
      </trkpt>
      <trkpt lat="43.17073" lon="5.59085">
        <ele>97</ele>
        <time>2023-01-12T16:21:17Z</time>
      </trkpt>
      <trkpt lat="43.17074" lon="5.59032">
        <ele>95</ele>
        <time>2023-01-12T16:21:48Z</time>
      </trkpt>
      <trkpt lat="43.17076" lon="5.5902">
        <ele>95</ele>
        <time>2023-01-12T16:21:55Z</time>
      </trkpt>
      <trkpt lat="43.17084" lon="5.58997">
        <ele>95</ele>
        <time>2023-01-12T16:22:10Z</time>
      </trkpt>
      <trkpt lat="43.17115" lon="5.58951">
        <ele>101</ele>
        <time>2023-01-12T16:22:46Z</time>
      </trkpt>
      <trkpt lat="43.17117" lon="5.58936">
        <ele>101</ele>
        <time>2023-01-12T16:22:55Z</time>
      </trkpt>
      <trkpt lat="43.17117" lon="5.58878">
        <ele>103</ele>
        <time>2023-01-12T16:23:29Z</time>
      </trkpt>
      <trkpt lat="43.17121" lon="5.58841">
        <ele>106</ele>
        <time>2023-01-12T16:23:51Z</time>
      </trkpt>
      <trkpt lat="43.17126" lon="5.58822">
        <ele>106</ele>
        <time>2023-01-12T16:24:03Z</time>
      </trkpt>
      <trkpt lat="43.17134" lon="5.58803">
        <ele>106</ele>
        <time>2023-01-12T16:24:16Z</time>
      </trkpt>
      <trkpt lat="43.1718" lon="5.58731">
        <ele>111</ele>
        <time>2023-01-12T16:25:12Z</time>
      </trkpt>
      <trkpt lat="43.1719" lon="5.58721">
        <ele>112</ele>
        <time>2023-01-12T16:25:21Z</time>
      </trkpt>
      <trkpt lat="43.17217" lon="5.58706">
        <ele>118</ele>
        <time>2023-01-12T16:25:45Z</time>
      </trkpt>
      <trkpt lat="43.17227" lon="5.58697">
        <ele>120</ele>
        <time>2023-01-12T16:25:54Z</time>
      </trkpt>
      <trkpt lat="43.17232" lon="5.58683">
        <ele>120</ele>
        <time>2023-01-12T16:26:03Z</time>
      </trkpt>
      <trkpt lat="43.17232" lon="5.58665">
        <ele>118</ele>
        <time>2023-01-12T16:26:14Z</time>
      </trkpt>
      <trkpt lat="43.17222" lon="5.58641">
        <ele>116</ele>
        <time>2023-01-12T16:26:30Z</time>
      </trkpt>
      <trkpt lat="43.17218" lon="5.58628">
        <ele>115</ele>
        <time>2023-01-12T16:26:38Z</time>
      </trkpt>
      <trkpt lat="43.17217" lon="5.58616">
        <ele>116</ele>
        <time>2023-01-12T16:26:45Z</time>
      </trkpt>
      <trkpt lat="43.17221" lon="5.58597">
        <ele>118</ele>
        <time>2023-01-12T16:26:57Z</time>
      </trkpt>
      <trkpt lat="43.17239" lon="5.58555">
        <ele>122</ele>
        <time>2023-01-12T16:27:25Z</time>
      </trkpt>
      <trkpt lat="43.17261" lon="5.58522">
        <ele>125</ele>
        <time>2023-01-12T16:27:51Z</time>
      </trkpt>
      <trkpt lat="43.17289" lon="5.58491">
        <ele>130</ele>
        <time>2023-01-12T16:28:20Z</time>
      </trkpt>
      <trkpt lat="43.17318" lon="5.58465">
        <ele>135</ele>
        <time>2023-01-12T16:28:48Z</time>
        <extensions>
          <visugpx:TrkExtension xmlns:visugpx="https://www.visugpx.com/editgpx/">
            <visugpx:node>1</visugpx:node>
            </visugpx:TrkExtension>
        </extensions>
      </trkpt>
    </trkseg>
  </trk>
</gpx>